Time;durP1;ratioP1;P1;durP2;ratioP2;P2;SDS_P1;SDS_P2;PMS_P1;PMS_P2;Temp;Humidity;BMP_temperature;BMP_pressure;BME280_temperature;BME280_humidity;BME280_pressure;Samples;Min_cycle;Max_cycle;Signal;HPM_P1;HPM_P2
2021/01/23 00:02:06;;;;;;;0.10;0.10;;;;;;;-0.33;100.00;97609.47;5031005;28;20052;-77
2021/01/23 00:05:10;;;;;;;0.35;0.35;;;;;;;-0.37;100.00;97612.34;5031909;28;20048;-77
2021/01/23 00:08:14;;;;;;;0.30;0.30;;;;;;;-0.38;100.00;97610.84;5031815;28;20056;-77
2021/01/23 00:11:17;;;;;;;0.20;0.20;;;;;;;-0.39;100.00;97612.03;5032278;28;20496;-76
2021/01/23 00:14:21;;;;;;;0.30;0.30;;;;;;;-0.36;100.00;97611.16;5031894;28;20053;-77
2021/01/23 00:17:25;;;;;;;0.30;0.30;;;;;;;-0.32;100.00;97614.47;5031191;28;20060;-77
2021/01/23 00:20:28;;;;;;;0.20;0.20;;;;;;;-0.24;100.00;97612.94;5031645;28;20500;-77
2021/01/23 00:23:32;;;;;;;0.30;0.30;;;;;;;-0.19;100.00;97606.88;5031957;28;20053;-77
2021/01/23 00:26:35;;;;;;;0.20;0.20;;;;;;;-0.15;100.00;97602.00;5031752;28;20501;-77
2021/01/23 00:29:38;;;;;;;0.20;0.20;;;;;;;-0.13;100.00;97599.56;5031659;28;20504;-77
2021/01/23 00:32:41;;;;;;;0.30;0.30;;;;;;;-0.14;100.00;97592.59;5031739;28;20167;-77
2021/01/23 00:35:45;;;;;;;0.20;0.20;;;;;;;-0.15;100.00;97595.75;5031692;28;20057;-78
2021/01/23 00:38:48;;;;;;;0.10;0.10;;;;;;;-0.23;100.00;97592.59;5032059;28;20508;-77
2021/01/23 00:41:52;;;;;;;0.30;0.30;;;;;;;-0.25;100.00;97594.28;5031566;28;20052;-77
2021/01/23 00:44:55;;;;;;;0.30;0.30;;;;;;;-0.27;100.00;97588.50;5031394;28;20060;-77
2021/01/23 00:48:10;;;;;;;0.30;0.30;;;;;;;-0.30;100.00;97590.16;5031628;28;20052;-77
2021/01/23 00:51:13;;;;;;;0.30;0.30;;;;;;;-0.32;100.00;97589.88;5031517;28;20056;-77
2021/01/23 00:54:17;;;;;;;0.28;0.28;;;;;;;-0.31;100.00;97585.94;5031537;28;20052;-77
2021/01/23 00:57:20;;;;;;;0.30;0.30;;;;;;;-0.27;100.00;97578.34;5031575;28;20053;-77
2021/01/23 01:00:24;;;;;;;0.32;0.32;;;;;;;-0.27;100.00;97583.03;5031597;28;20052;-77
2021/01/23 01:03:32;;;;;;;0.25;0.25;;;;;;;-0.30;100.00;97583.94;5030828;28;20060;-77
2021/01/23 01:06:36;;;;;;;0.30;0.30;;;;;;;-0.33;100.00;97584.88;5032024;28;20056;-77
2021/01/23 01:09:39;;;;;;;0.20;0.20;;;;;;;-0.33;100.00;97580.16;5031420;28;20578;-77
2021/01/23 01:12:43;;;;;;;0.30;0.30;;;;;;;-0.32;100.00;97581.66;5030568;28;20061;-77
2021/01/23 01:15:46;;;;;;;0.25;0.25;;;;;;;-0.35;100.00;97582.59;5031175;28;20052;-78
2021/01/23 01:18:49;;;;;;;0.20;0.20;;;;;;;-0.39;100.00;97581.97;5030746;28;20053;-77
2021/01/23 01:21:53;;;;;;;0.35;0.35;;;;;;;-0.41;100.00;97570.00;5031074;28;20061;-77
2021/01/23 01:24:56;;;;;;;0.30;0.30;;;;;;;-0.41;100.00;97576.22;5035466;28;20053;-77
2021/01/23 01:27:59;;;;;;;0.30;0.30;;;;;;;-0.43;100.00;97570.44;5036202;28;20049;-77
2021/01/23 01:31:03;;;;;;;0.20;0.20;;;;;;;-0.47;100.00;97577.28;5034765;28;20401;-77
2021/01/23 01:34:06;;;;;;;0.40;0.40;;;;;;;-0.60;100.00;97571.97;5035012;28;20052;-77
2021/01/23 01:37:10;;;;;;;0.35;0.35;;;;;;;-0.68;100.00;97576.25;5034620;28;20053;-77
2021/01/23 01:40:13;;;;;;;0.20;0.20;;;;;;;-0.75;100.00;97579.25;5034362;28;20052;-77
2021/01/23 01:43:17;;;;;;;0.20;0.20;;;;;;;-0.82;100.00;97572.13;5034620;28;20052;-77
2021/01/23 01:46:21;;;;;;;0.40;0.40;;;;;;;-0.85;100.00;97578.53;5034543;28;20048;-77
2021/01/23 01:49:25;;;;;;;0.30;0.30;;;;;;;-0.87;100.00;97574.72;5034142;28;20072;-77
2021/01/23 01:52:29;;;;;;;0.30;0.30;;;;;;;-0.87;100.00;97580.19;5034459;28;20163;-77
2021/01/23 01:55:34;;;;;;;0.30;0.30;;;;;;;-0.81;100.00;97583.81;5033877;28;20512;-77
2021/01/23 01:58:38;;;;;;;0.30;0.30;;;;;;;-0.74;100.00;97577.31;5033581;28;20052;-77
2021/01/23 02:01:42;;;;;;;0.20;0.20;;;;;;;-0.63;100.00;97578.38;5034401;28;20524;-77
2021/01/23 02:04:54;;;;;;;0.30;0.30;;;;;;;-0.54;100.00;97577.59;5034258;28;20109;-77
2021/01/23 02:08:12;;;;;;;0.30;0.30;;;;;;;-0.59;100.00;97576.25;5033207;28;20513;-77
2021/01/23 02:11:53;;;;;;;0.10;0.10;;;;;;;-0.67;100.00;97572.28;5014987;28;20462;-77
2021/01/23 02:15:13;;;;;;;0.20;0.20;;;;;;;-0.76;100.00;97572.31;5014496;28;20422;-77
2021/01/23 02:18:20;;;;;;;0.30;0.30;;;;;;;-0.85;100.00;97566.81;5013330;28;20118;-77
2021/01/23 02:22:01;;;;;;;0.40;0.40;;;;;;;-0.90;100.00;97576.38;5013825;28;20521;-77
2021/01/23 02:25:06;;;;;;;0.38;0.38;;;;;;;-0.86;100.00;97568.03;5025313;28;20122;-78
2021/01/23 02:28:14;;;;;;;0.40;0.40;;;;;;;-0.80;100.00;97566.19;5014648;28;20053;-77
2021/01/23 02:31:20;;;;;;;0.38;0.38;;;;;;;-0.74;100.00;97572.59;5024863;28;20403;-78
2021/01/23 02:34:25;;;;;;;0.35;0.35;;;;;;;-0.71;100.00;97568.94;5014210;28;20517;-77
2021/01/23 02:37:30;;;;;;;0.20;0.20;;;;;;;-0.66;100.00;97570.31;5013980;28;20056;-78
2021/01/23 02:40:34;;;;;;;0.20;0.20;;;;;;;-0.65;100.00;97572.56;5013976;28;20049;-78
2021/01/23 02:43:47;;;;;;;0.20;0.20;;;;;;;-0.62;100.00;97558.00;5013996;28;20064;-78
2021/01/23 02:46:53;;;;;;;0.30;0.30;;;;;;;-0.67;100.00;97558.63;5013933;28;20057;-78
2021/01/23 02:49:57;;;;;;;0.17;0.17;;;;;;;-0.74;100.00;97561.66;5024409;28;20461;-78
2021/01/23 02:53:10;;;;;;;0.30;0.30;;;;;;;-0.80;100.00;97564.25;5013902;28;20061;-78
2021/01/23 02:56:17;;;;;;;0.20;0.20;;;;;;;-0.79;100.00;97570.47;5013716;28;20053;-77
2021/01/23 02:59:23;;;;;;;0.20;0.20;;;;;;;-0.76;100.00;97561.38;5013779;28;20049;-77
2021/01/23 03:02:27;;;;;;;0.20;0.20;;;;;;;-0.72;100.00;97570.16;5013445;28;20068;-77
2021/01/23 03:05:33;;;;;;;0.10;0.10;;;;;;;-0.69;100.00;97573.97;5013496;28;20057;-78
2021/01/23 03:08:43;;;;;;;0.40;0.40;;;;;;;-0.72;100.00;97570.16;5017138;28;20052;-77
2021/01/23 03:11:48;;;;;;;0.30;0.30;;;;;;;-0.72;100.00;97570.16;5031295;28;20053;-77
2021/01/23 03:14:52;;;;;;;0.20;0.20;;;;;;;-0.70;100.00;97565.00;5032299;28;20052;-77
2021/01/23 03:17:56;;;;;;;0.20;0.20;;;;;;;-0.69;100.00;97558.31;5032555;28;20060;-78
2021/01/23 03:20:59;;;;;;;0.30;0.30;;;;;;;-0.73;100.00;97563.16;5032238;28;20057;-77
2021/01/23 03:24:03;;;;;;;0.30;0.30;;;;;;;-0.78;100.00;97566.53;5032282;28;20052;-77
2021/01/23 03:27:06;;;;;;;0.40;0.40;;;;;;;-0.80;100.00;97560.75;5032950;28;20116;-77
2021/01/23 03:30:10;;;;;;;0.30;0.30;;;;;;;-0.79;100.00;97565.78;5032812;28;20056;-77
2021/01/23 03:33:13;;;;;;;0.20;0.20;;;;;;;-0.74;100.00;97561.66;5033226;28;20056;-77
2021/01/23 03:36:17;;;;;;;0.30;0.30;;;;;;;-0.67;100.00;97560.59;5033117;28;20072;-77
2021/01/23 03:39:20;;;;;;;0.10;0.10;;;;;;;-0.59;100.00;97568.03;5033189;28;20056;-77
2021/01/23 03:42:23;;;;;;;0.30;0.30;;;;;;;-0.51;100.00;97563.78;5032520;28;20057;-77
2021/01/23 03:45:27;;;;;;;0.20;0.20;;;;;;;-0.43;100.00;97567.72;5032446;28;20061;-77
2021/01/23 03:48:30;;;;;;;0.20;0.20;;;;;;;-0.38;100.00;97561.63;5032090;28;20580;-77
2021/01/23 03:51:34;;;;;;;0.20;0.20;;;;;;;-0.31;100.00;97561.31;5032605;28;20052;-77
2021/01/23 03:54:39;;;;;;;0.20;0.20;;;;;;;-0.27;100.00;97563.88;5032645;28;20072;-77
2021/01/23 03:57:42;;;;;;;0.20;0.20;;;;;;;-0.22;100.00;97564.03;5032419;28;20057;-77
2021/01/23 04:00:46;;;;;;;0.10;0.10;;;;;;;-0.17;100.00;97565.38;5032549;28;20068;-77
2021/01/23 04:03:49;;;;;;;0.20;0.20;;;;;;;-0.13;100.00;97558.53;5032873;28;20049;-77
2021/01/23 04:06:53;;;;;;;0.28;0.28;;;;;;;-0.09;100.00;97550.19;5032492;28;20060;-77
2021/01/23 04:09:57;;;;;;;0.30;0.30;;;;;;;-0.06;100.00;97560.19;5032401;28;20060;-77
2021/01/23 04:13:00;;;;;;;0.20;0.20;;;;;;;-0.06;100.00;97547.28;5032630;28;20068;-77
2021/01/23 04:16:05;;;;;;;0.20;0.20;;;;;;;-0.04;100.00;97552.28;5032349;28;20060;-77
2021/01/23 04:19:08;;;;;;;0.20;0.20;;;;;;;-0.02;100.00;97564.28;5032761;28;20409;-77
2021/01/23 04:22:11;;;;;;;0.20;0.20;;;;;;;-0.01;100.00;97563.06;5032020;28;20048;-78
2021/01/23 04:25:15;;;;;;;0.10;0.10;;;;;;;0.03;100.00;97562.91;5031856;28;20048;-77
2021/01/23 04:28:18;;;;;;;0.20;0.20;;;;;;;0.05;100.00;97562.44;5031640;28;20052;-77
2021/01/23 04:31:22;;;;;;;0.20;0.20;;;;;;;0.08;100.00;97569.72;5031912;28;20056;-78
2021/01/23 04:34:26;;;;;;;0.10;0.10;;;;;;;0.09;100.00;97568.53;5032290;28;20064;-77
2021/01/23 04:37:29;;;;;;;0.20;0.20;;;;;;;0.12;100.00;97581.28;5031212;28;20060;-77
2021/01/23 04:40:32;;;;;;;0.20;0.20;;;;;;;0.13;100.00;97569.84;5032110;28;20060;-78
2021/01/23 04:43:35;;;;;;;0.20;0.20;;;;;;;0.15;100.00;97577.63;5032513;28;20512;-78
2021/01/23 04:46:38;;;;;;;0.20;0.20;;;;;;;0.15;100.00;97566.69;5032017;28;20056;-78
2021/01/23 04:49:42;;;;;;;0.20;0.20;;;;;;;0.18;100.00;97571.97;5031721;28;20056;-78
2021/01/23 04:52:45;;;;;;;0.20;0.20;;;;;;;0.18;100.00;97571.22;5032381;28;20513;-77
2021/01/23 04:55:49;;;;;;;0.20;0.20;;;;;;;0.19;100.00;97564.53;5031725;28;20049;-77
2021/01/23 04:58:52;;;;;;;0.20;0.20;;;;;;;0.18;100.00;97568.47;5033433;28;20056;-78
2021/01/23 05:02:13;;;;;;;0.20;0.20;;;;;;;0.20;100.00;97566.03;5035564;28;20500;-78
2021/01/23 05:05:17;;;;;;;0.20;0.20;;;;;;;0.19;100.00;97570.00;5035099;28;20053;-77
2021/01/23 05:08:33;;;;;;;0.20;0.20;;;;;;;0.19;100.00;97570.78;5035629;28;20409;-78
2021/01/23 05:11:46;;;;;;;0.10;0.10;;;;;;;0.18;100.00;97579.41;5035559;28;20045;-78
2021/01/23 05:14:54;;;;;;;0.10;0.10;;;;;;;0.19;100.00;97587.19;5035658;28;20060;-78
2021/01/23 05:18:04;;;;;;;0.20;0.20;;;;;;;0.23;100.00;97592.47;5035901;28;20072;-78
2021/01/23 05:21:10;;;;;;;0.20;0.20;;;;;;;0.25;100.00;97579.88;5035280;28;20056;-78
2021/01/23 05:24:14;;;;;;;0.30;0.30;;;;;;;0.24;100.00;97578.34;5035533;28;20493;-78
2021/01/23 05:27:19;;;;;;;0.10;0.10;;;;;;;0.23;100.00;97578.81;5035424;28;20052;-78
2021/01/23 05:30:23;;;;;;;0.20;0.20;;;;;;;0.24;100.00;97578.34;5035372;28;20056;-78
2021/01/23 05:33:32;;;;;;;0.30;0.30;;;;;;;0.24;100.00;97577.59;5035382;28;20052;-77
2021/01/23 05:36:41;;;;;;;0.20;0.20;;;;;;;0.22;100.00;97574.56;5035330;28;20060;-78
2021/01/23 05:39:47;;;;;;;0.20;0.20;;;;;;;0.20;100.00;97576.97;5035465;28;20400;-78
2021/01/23 05:42:51;;;;;;;0.20;0.20;;;;;;;0.15;100.00;97575.66;5035435;28;20056;-77
2021/01/23 05:45:54;;;;;;;0.20;0.20;;;;;;;0.17;100.00;97591.59;5035107;28;20053;-78
2021/01/23 05:48:58;;;;;;;0.20;0.20;;;;;;;0.14;100.00;97578.81;5035313;28;20060;-78
2021/01/23 05:52:01;;;;;;;0.20;0.20;;;;;;;0.12;100.00;97581.28;5034858;28;20072;-78
2021/01/23 05:55:06;;;;;;;0.20;0.20;;;;;;;0.09;100.00;97587.69;5034612;28;21012;-78
2021/01/23 05:58:09;;;;;;;0.20;0.20;;;;;;;0.06;100.00;97583.88;5034984;28;20056;-78
2021/01/23 06:01:15;;;;;;;0.20;0.20;;;;;;;0.05;100.00;97587.81;5034816;28;20076;-78
2021/01/23 06:04:19;;;;;;;0.20;0.20;;;;;;;0.07;100.00;97582.66;5034585;28;20061;-79
2021/01/23 06:07:41;;;;;;;0.20;0.20;;;;;;;0.09;100.00;97591.16;5034131;28;20528;-77
2021/01/23 06:10:45;;;;;;;0.20;0.20;;;;;;;0.12;100.00;97592.22;5013727;28;20061;-78
2021/01/23 06:13:50;;;;;;;0.10;0.10;;;;;;;0.16;100.00;97593.56;5014743;28;20053;-78
2021/01/23 06:16:54;;;;;;;0.15;0.15;;;;;;;0.17;100.00;97591.59;5014932;28;20052;-79
2021/01/23 06:19:57;;;;;;;0.30;0.30;;;;;;;0.21;100.00;97590.22;5014893;28;20065;-78
2021/01/23 06:23:00;;;;;;;0.10;0.10;;;;;;;0.19;100.00;97591.91;5014147;28;20161;-78
2021/01/23 06:26:04;;;;;;;0.10;0.10;;;;;;;0.18;100.00;97601.31;5013841;28;20048;-78
2021/01/23 06:29:08;;;;;;;0.20;0.20;;;;;;;0.17;100.00;97594.34;5013340;28;20052;-78
2021/01/23 06:32:11;;;;;;;0.20;0.20;;;;;;;0.17;100.00;97597.06;5013603;28;20593;-78
2021/01/23 06:35:15;;;;;;;0.20;0.20;;;;;;;0.17;100.00;97602.53;5014571;28;20048;-77
2021/01/23 06:38:18;;;;;;;0.10;0.10;;;;;;;0.18;100.00;97599.34;5014273;28;20057;-78
2021/01/23 06:41:25;;;;;;;0.28;0.28;;;;;;;0.19;100.00;97608.31;5016852;28;20049;-78
2021/01/23 06:44:32;;;;;;;0.13;0.13;;;;;;;0.20;100.00;97609.81;5016705;28;20057;-78
2021/01/23 06:47:43;;;;;;;0.10;0.10;;;;;;;0.22;100.00;97618.34;5016624;28;20053;-78
2021/01/23 06:50:48;;;;;;;0.10;0.10;;;;;;;0.23;100.00;97619.84;5025569;28;20053;-78
2021/01/23 06:54:18;;;;;;;0.10;0.10;;;;;;;0.25;100.00;97617.41;5014939;28;20068;-76
2021/01/23 06:57:22;;;;;;;0.10;0.10;;;;;;;0.25;100.00;97618.19;5024886;28;20057;-78
2021/01/23 07:00:25;;;;;;;0.22;0.22;;;;;;;0.29;100.00;97623.47;5013927;28;20057;-78
2021/01/23 07:03:30;;;;;;;0.13;0.13;;;;;;;0.29;100.00;97623.47;5013028;28;20049;-79
2021/01/23 07:06:34;;;;;;;0.20;0.20;;;;;;;0.31;100.00;97623.78;5013676;28;20057;-80
2021/01/23 07:09:47;;;;;;;0.10;0.10;;;;;;;0.34;100.00;97631.06;5026911;28;20195;-79
2021/01/23 07:12:51;;;;;;;0.10;0.10;;;;;;;0.35;100.00;97627.09;5033347;28;20056;-79
2021/01/23 07:15:54;;;;;;;0.20;0.20;;;;;;;0.36;100.00;97642.31;5044162;28;20413;-79
2021/01/23 07:19:00;;;;;;;0.20;0.20;;;;;;;0.34;100.00;97636.56;5024043;28;20079;-78
2021/01/23 07:22:04;;;;;;;0.13;0.13;;;;;;;0.36;100.00;97634.09;5012208;28;20052;-79
2021/01/23 07:25:10;;;;;;;0.20;0.20;;;;;;;0.36;100.00;97636.84;5013736;28;20508;-79
2021/01/23 07:28:20;;;;;;;0.20;0.20;;;;;;;0.37;100.00;97641.13;5032971;28;20048;-79
2021/01/23 07:31:29;;;;;;;0.20;0.20;;;;;;;0.37;100.00;97641.13;5024179;28;20066;-79
2021/01/23 07:34:32;;;;;;;0.10;0.10;;;;;;;0.41;100.00;97647.19;5012889;28;20045;-79
2021/01/23 07:37:48;;;;;;;0.20;0.20;;;;;;;0.40;100.00;97642.91;5015809;28;20057;-79
2021/01/23 07:40:55;;;;;;;0.30;0.30;;;;;;;0.42;100.00;97637.72;5013609;28;20049;-79
2021/01/23 07:44:00;;;;;;;0.20;0.20;;;;;;;0.43;100.00;97644.75;5032542;28;20056;-79
2021/01/23 07:47:03;;;;;;;0.20;0.20;;;;;;;0.43;100.00;97644.75;5032736;28;20052;-79
2021/01/23 07:50:13;;;;;;;0.10;0.10;;;;;;;0.43;100.00;97642.00;5032404;28;20402;-79
2021/01/23 07:53:17;;;;;;;0.25;0.25;;;;;;;0.43;100.00;97644.75;5032674;28;20405;-79
2021/01/23 07:56:22;;;;;;;0.17;0.17;;;;;;;0.45;100.00;97654.00;5028618;28;20048;-79
2021/01/23 07:59:42;;;;;;;0.10;0.10;;;;;;;0.43;100.00;97655.69;5014718;28;20061;-79
2021/01/23 08:02:57;;;;;;;0.17;0.17;;;;;;;0.43;100.00;97655.69;5012929;28;20066;-79
2021/01/23 08:06:01;;;;;;;0.20;0.20;;;;;;;0.43;100.00;97655.69;5013048;28;20049;-79
2021/01/23 08:09:17;;;;;;;0.28;0.28;;;;;;;0.42;100.00;97657.66;5020225;28;20402;-79
2021/01/23 08:12:20;;;;;;;0.20;0.20;;;;;;;0.44;100.00;97659.94;5032520;28;20064;-79
2021/01/23 08:15:29;;;;;;;0.20;0.20;;;;;;;0.48;100.00;97658.53;5031961;28;20068;-79
2021/01/23 08:18:32;;;;;;;0.20;0.20;;;;;;;0.47;100.00;97661.75;5032561;28;20052;-79
2021/01/23 08:21:36;;;;;;;0.35;0.35;;;;;;;0.43;100.00;97655.69;5033118;28;20402;-79
2021/01/23 08:24:39;;;;;;;0.20;0.20;;;;;;;0.42;100.00;97665.09;5031263;28;20049;-80
2021/01/23 08:27:49;;;;;;;0.20;0.20;;;;;;;0.40;100.00;97670.28;5030713;28;20083;-78
2021/01/23 08:30:52;;;;;;;0.20;0.20;;;;;;;0.36;100.00;97667.72;5029491;28;20052;-79
2021/01/23 08:33:57;;;;;;;0.30;0.30;;;;;;;0.34;100.00;97663.91;5030030;28;20090;-79
2021/01/23 08:37:02;;;;;;;0.25;0.25;;;;;;;0.34;100.00;97672.91;5030874;28;20053;-80
2021/01/23 08:40:06;;;;;;;0.20;0.20;;;;;;;0.31;100.00;97670.31;5031020;28;20128;-80
2021/01/23 08:43:10;;;;;;;0.17;0.17;;;;;;;0.30;100.00;97671.53;5032400;28;20076;-79
2021/01/23 08:46:13;;;;;;;0.30;0.30;;;;;;;0.30;100.00;97666.84;5027701;28;20052;-79
2021/01/23 08:49:17;;;;;;;0.30;0.30;;;;;;;0.33;100.00;97670.59;5031354;28;20048;-79
2021/01/23 08:52:20;;;;;;;0.25;0.25;;;;;;;0.34;100.00;97681.13;5031197;28;20052;-79
2021/01/23 08:55:23;;;;;;;0.20;0.20;;;;;;;0.34;100.00;97672.91;5030369;28;20068;-78
2021/01/23 08:58:27;;;;;;;0.28;0.28;;;;;;;0.36;100.00;97673.19;5031625;28;20602;-79
2021/01/23 09:01:30;;;;;;;0.20;0.20;;;;;;;0.39;100.00;97682.47;5031619;28;20056;-79
2021/01/23 09:04:33;;;;;;;0.20;0.20;;;;;;;0.42;100.00;97681.53;5031264;28;20045;-79
2021/01/23 09:07:38;;;;;;;0.35;0.35;;;;;;;0.44;100.00;97679.84;5030777;28;20049;-79
2021/01/23 09:10:42;;;;;;;0.30;0.30;;;;;;;0.42;100.00;97687.00;5031409;28;20053;-79
2021/01/23 09:13:45;;;;;;;0.20;0.20;;;;;;;0.42;100.00;97687.78;5031487;28;20044;-80
2021/01/23 09:16:49;;;;;;;0.20;0.20;;;;;;;0.41;100.00;97690.97;5030945;28;20057;-80
2021/01/23 09:19:52;;;;;;;0.10;0.10;;;;;;;0.43;100.00;97683.84;5031361;28;20050;-80
2021/01/23 09:22:55;;;;;;;0.20;0.20;;;;;;;0.41;100.00;97686.25;5031924;28;20057;-82
2021/01/23 09:26:02;;;;;;;0.30;0.30;;;;;;;0.38;100.00;97686.41;5031617;28;20044;-80
2021/01/23 09:29:05;;;;;;;0.20;0.20;;;;;;;0.37;100.00;97691.13;5032039;28;20061;-81
2021/01/23 09:32:09;;;;;;;0.10;0.10;;;;;;;0.36;100.00;97686.88;5031038;28;20053;-80
2021/01/23 09:35:13;;;;;;;0.30;0.30;;;;;;;0.37;100.00;97701.34;5031889;28;20056;-80
2021/01/23 09:38:17;;;;;;;0.10;0.10;;;;;;;0.41;100.00;97699.19;5031689;28;20390;-81
2021/01/23 09:41:20;;;;;;;0.20;0.20;;;;;;;0.41;100.00;97705.41;5030560;28;20056;-81
2021/01/23 09:44:24;;;;;;;0.30;0.30;;;;;;;0.43;100.00;97696.75;5032991;28;20398;-80
2021/01/23 09:47:28;;;;;;;0.20;0.20;;;;;;;0.47;100.00;97700.09;5034946;28;20052;-80
2021/01/23 09:50:31;;;;;;;0.20;0.20;;;;;;;0.48;100.00;97696.13;5035344;28;20056;-81
2021/01/23 09:53:34;;;;;;;0.10;0.10;;;;;;;0.51;100.00;97695.19;5034277;28;20581;-82
2021/01/23 09:56:38;;;;;;;0.20;0.20;;;;;;;0.54;100.00;97699.78;5034090;28;20056;-81
2021/01/23 09:59:41;;;;;;;0.22;0.22;;;;;;;0.61;100.00;97707.63;5034697;28;20052;-82
2021/01/23 10:02:45;;;;;;;0.20;0.20;;;;;;;0.67;100.00;97703.09;5032307;28;20056;-82
2021/01/23 10:05:48;;;;;;;0.20;0.20;;;;;;;0.74;100.00;97705.47;5032880;28;20056;-80
2021/01/23 10:08:52;;;;;;;0.17;0.17;;;;;;;0.81;100.00;97707.88;5033024;28;20052;-81
2021/01/23 10:11:57;;;;;;;0.10;0.10;;;;;;;0.84;100.00;97712.44;5014249;28;20056;-81
2021/01/23 10:15:01;;;;;;;0.20;0.20;;;;;;;0.82;100.00;97714.91;5013340;28;20045;-80
2021/01/23 10:18:05;;;;;;;0.20;0.20;;;;;;;0.87;100.00;97714.25;5013644;28;20410;-82
2021/01/23 10:21:09;;;;;;;0.10;0.10;;;;;;;0.95;100.00;97712.72;5014625;28;20053;-82
2021/01/23 10:24:13;;;;;;;0.20;0.20;;;;;;;1.03;100.00;97724.84;5034504;28;20536;-81
2021/01/23 10:27:16;;;;;;;0.10;0.10;;;;;;;1.01;100.00;97727.31;5034468;28;20057;-82
2021/01/23 10:30:20;;;;;;;0.20;0.20;;;;;;;1.01;100.00;97735.53;5034179;28;20045;-82
2021/01/23 10:33:24;;;;;;;0.20;0.20;;;;;;;1.05;100.00;97736.09;5033468;28;20056;-83
2021/01/23 10:36:27;;;;;;;0.30;0.30;;;;;;;1.08;100.00;97743.41;5033699;28;20052;-83
2021/01/23 10:39:30;;;;;;;0.20;0.20;;;;;;;1.11;100.00;97747.94;5033930;28;20508;-83
2021/01/23 10:42:34;;;;;;;0.20;0.20;;;;;;;1.16;100.00;97750.06;5036525;28;20056;-83
2021/01/23 10:45:38;;;;;;;0.10;0.10;;;;;;;1.17;100.00;97746.09;5035452;28;20502;-84
2021/01/23 10:48:42;;;;;;;0.20;0.20;;;;;;;1.17;100.00;97739.88;5033797;28;20048;-83
2021/01/23 10:51:46;;;;;;;0.20;0.20;;;;;;;1.21;100.00;97741.19;5033809;28;20056;-83
2021/01/23 10:54:49;;;;;;;0.10;0.10;;;;;;;1.23;100.00;97749.75;5042205;28;20410;-83
2021/01/23 10:57:56;;;;;;;0.20;0.20;;;;;;;1.23;100.00;97747.00;5034837;28;20064;-83
2021/01/23 11:00:59;;;;;;;0.10;0.10;;;;;;;1.21;100.00;97746.69;5033953;28;20064;-83
2021/01/23 11:04:04;;;;;;;0.10;0.10;;;;;;;1.19;100.00;97749.13;5033808;28;20045;-82
2021/01/23 11:07:07;;;;;;;0.20;0.20;;;;;;;1.13;100.00;97751.00;5032747;28;20504;-82
2021/01/23 11:10:12;;;;;;;0.20;0.20;;;;;;;1.05;100.00;97752.56;5032753;28;20408;-82
2021/01/23 11:13:15;;;;;;;0.20;0.20;;;;;;;1.08;100.00;97757.13;5033622;28;20052;-81
2021/01/23 11:16:19;;;;;;;0.10;0.10;;;;;;;1.07;100.00;97752.84;5032774;28;20108;-81
2021/01/23 11:19:22;;;;;;;0.10;0.10;;;;;;;1.01;100.00;97748.44;5033211;28;20045;-82
2021/01/23 11:22:28;;;;;;;0.28;0.28;;;;;;;1.34;100.00;97754.72;5032243;28;20048;-81
2021/01/23 11:25:31;;;;;;;0.20;0.20;;;;;;;1.60;100.00;97749.53;5033198;28;20108;-83
2021/01/23 11:28:36;;;;;;;0.15;0.15;;;;;;;1.71;100.00;97749.78;5032458;28;20056;-83
2021/01/23 11:31:39;;;;;;;0.10;0.10;;;;;;;1.61;100.00;97751.03;5033123;28;20672;-83
2021/01/23 11:34:43;;;;;;;0.10;0.10;;;;;;;1.49;100.00;97748.06;5032387;28;20563;-83
2021/01/23 11:37:47;;;;;;;0.10;0.10;;;;;;;1.45;100.00;97752.97;5034238;28;20048;-82
2021/01/23 11:40:51;;;;;;;0.10;0.10;;;;;;;1.40;100.00;97752.84;5034508;28;20693;-82
2021/01/23 11:44:00;;;;;;;0.20;0.20;;;;;;;1.23;100.00;97746.25;5033173;28;20056;-81
2021/01/23 11:47:04;;;;;;;0.20;0.20;;;;;;;1.23;100.00;97755.22;5034578;28;20057;-82
2021/01/23 11:50:08;;;;;;;0.20;0.20;;;;;;;1.35;100.00;97751.50;5035288;28;20056;-82
2021/01/23 11:53:11;;;;;;;0.20;0.20;;;;;;;1.28;100.00;97751.84;5033466;28;20048;-82
2021/01/23 11:56:15;;;;;;;0.10;0.10;;;;;;;1.22;100.00;97756.44;5033171;28;20413;-82
2021/01/23 11:59:18;;;;;;;0.20;0.20;;;;;;;1.21;100.00;97752.16;5033298;28;20064;-82
2021/01/23 12:02:21;;;;;;;0.20;0.20;;;;;;;1.21;100.00;97757.66;5033710;28;20057;-82
2021/01/23 12:05:25;;;;;;;0.17;0.17;;;;;;;1.31;100.00;97755.63;5033697;28;20076;-83
2021/01/23 12:08:28;;;;;;;0.30;0.30;;;;;;;1.46;100.00;97757.22;5032063;28;20052;-83
2021/01/23 12:11:32;;;;;;;0.20;0.20;;;;;;;1.62;100.00;97760.81;5033733;28;20045;-83
2021/01/23 12:14:35;;;;;;;0.20;0.20;;;;;;;1.63;100.00;97740.38;5032342;28;20072;-83
2021/01/23 12:17:38;;;;;;;0.20;0.20;;;;;;;1.56;100.00;97748.97;5031395;28;20048;-81
2021/01/23 12:20:42;;;;;;;0.30;0.30;;;;;;;1.43;100.00;97743.69;5032094;28;20064;-81
2021/01/23 12:23:46;;;;;;;0.17;0.17;;;;;;;1.31;100.00;97756.41;5032529;28;20072;-83
2021/01/23 12:26:49;;;;;;;0.20;0.20;;;;;;;1.24;100.00;97750.47;5031347;28;20513;-81
2021/01/23 12:29:53;;;;;;;0.30;0.30;;;;;;;1.28;100.00;97751.06;5035494;28;20052;-80
2021/01/23 12:32:56;;;;;;;0.20;0.20;;;;;;;1.33;100.00;97759.44;5033740;28;20052;-81
2021/01/23 12:36:00;;;;;;;0.30;0.30;;;;;;;1.42;100.00;97762.13;5031878;28;20056;-80
2021/01/23 12:39:03;;;;;;;0.20;0.20;;;;;;;1.45;100.00;97761.19;5031538;28;20405;-79
2021/01/23 12:42:07;;;;;;;0.20;0.20;;;;;;;1.48;100.00;97762.25;5033774;28;20132;-80
2021/01/23 12:45:11;;;;;;;0.13;0.13;;;;;;;1.49;100.00;97761.78;5031797;28;20052;-81
2021/01/23 12:48:15;;;;;;;0.13;0.13;;;;;;;1.46;100.00;97765.47;5031818;28;20056;-80
2021/01/23 12:51:19;;;;;;;0.20;0.20;;;;;;;1.33;100.00;97764.16;5030934;28;20053;-80
2021/01/23 12:54:22;;;;;;;0.10;0.10;;;;;;;1.32;100.00;97762.66;5031092;28;20049;-82
2021/01/23 12:57:25;;;;;;;0.10;0.10;;;;;;;1.33;100.00;97764.91;5031671;28;20045;-81
2021/01/23 13:00:29;;;;;;;0.20;0.20;;;;;;;1.36;100.00;97769.47;5023954;28;20064;-79
2021/01/23 13:03:32;;;;;;;0.20;0.20;;;;;;;1.42;100.00;97778.59;5031714;28;20048;-78
2021/01/23 13:06:35;;;;;;;0.20;0.20;;;;;;;1.49;100.00;97778.22;5030615;28;20049;-80
2021/01/23 13:09:38;;;;;;;0.15;0.15;;;;;;;1.46;100.00;97783.88;5039140;28;20057;-80
2021/01/23 13:12:43;;;;;;;0.10;0.10;;;;;;;1.46;100.00;97779.16;5033483;28;20056;-79
2021/01/23 13:15:46;;;;;;;0.28;0.28;;;;;;;1.42;100.00;97786.81;5026141;28;20061;-80
2021/01/23 13:18:50;;;;;;;0.20;0.20;;;;;;;1.36;100.00;97780.44;5031381;28;20068;-78
2021/01/23 13:21:53;;;;;;;0.17;0.17;;;;;;;1.40;100.00;97775.56;5034380;28;20057;-80
2021/01/23 13:24:57;;;;;;;0.30;0.30;;;;;;;1.60;100.00;97775.00;5034934;28;20053;-78
2021/01/23 13:28:01;;;;;;;0.10;0.10;;;;;;;1.72;100.00;97774.00;5029073;28;20040;-80
2021/01/23 13:31:05;;;;;;;0.20;0.20;;;;;;;1.67;100.00;97776.63;5030739;28;20052;-80
2021/01/23 13:34:08;;;;;;;0.10;0.10;;;;;;;1.59;100.00;97778.19;5033688;28;20049;-80
2021/01/23 13:37:11;;;;;;;0.10;0.10;;;;;;;1.50;100.00;97779.75;5034708;28;20500;-78
2021/01/23 13:40:15;;;;;;;0.10;0.10;;;;;;;1.54;100.00;97780.34;5040647;28;20048;-81
2021/01/23 13:43:19;;;;;;;0.10;0.10;;;;;;;1.56;100.00;97787.34;5033775;28;20060;-80
2021/01/23 13:46:23;;;;;;;0.10;0.10;;;;;;;1.48;100.00;97787.69;5015003;28;20078;-81
2021/01/23 13:49:26;;;;;;;0.10;0.10;;;;;;;1.42;100.00;97789.56;5027051;28;20047;-79
2021/01/23 13:52:29;;;;;;;0.10;0.10;;;;;;;1.47;100.00;97786.16;5034373;28;20052;-81
2021/01/23 13:55:33;;;;;;;0.20;0.20;;;;;;;1.56;100.00;97776.38;5034496;28;20053;-78
2021/01/23 13:58:36;;;;;;;0.20;0.20;;;;;;;1.63;100.00;97778.75;5033906;28;20513;-80
2021/01/23 14:01:40;;;;;;;0.20;0.20;;;;;;;1.62;100.00;97780.00;5033609;28;20052;-77
2021/01/23 14:04:43;;;;;;;0.10;0.10;;;;;;;1.57;100.00;97777.88;5034118;28;20052;-76
2021/01/23 14:07:47;;;;;;;0.28;0.28;;;;;;;1.48;100.00;97784.94;5034949;28;20056;-78
2021/01/23 14:10:53;;;;;;;0.20;0.20;;;;;;;1.51;100.00;97786.00;5034057;28;20057;-80
2021/01/23 14:13:57;;;;;;;0.15;0.15;;;;;;;1.51;100.00;97796.97;5032620;28;20052;-80
2021/01/23 14:17:01;;;;;;;0.10;0.10;;;;;;;1.50;100.00;97790.72;5033964;28;20049;-80
2021/01/23 14:20:05;;;;;;;0.10;0.10;;;;;;;1.53;100.00;97798.03;5033771;28;20060;-79
2021/01/23 14:23:08;;;;;;;0.10;0.10;;;;;;;1.56;100.00;97798.31;5034425;28;20052;-79
2021/01/23 14:26:12;;;;;;;0.10;0.10;;;;;;;1.52;100.00;97804.72;5032937;28;20052;-79
2021/01/23 14:29:15;;;;;;;0.13;0.13;;;;;;;1.51;100.00;97802.47;5034224;28;20061;-79